Time;durP1;ratioP1;P1;durP2;ratioP2;P2;SDS_P1;SDS_P2;PMS_P1;PMS_P2;Temp;Humidity;BMP_temperature;BMP_pressure;BME280_temperature;BME280_humidity;BME280_pressure;Samples;Min_cycle;Max_cycle;Signal;HPM_P1;HPM_P2
2023/12/24 00:01:43;;;;;;;;;;;;;;;4.82;100.00;99536.50;5003494;28;19918;-88
2023/12/24 00:04:13;;;;;;;;;;;;;;;4.77;100.00;99533.13;5020328;28;19918;-90
2023/12/24 00:06:39;;;;;;;;;;;;;;;4.63;100.00;99535.19;5002830;28;19944;-88
2023/12/24 00:09:07;;;;;;;;;;;;;;;4.63;100.00;99545.69;5001780;28;20439;-92
2023/12/24 00:11:35;;;;;;;;;;;;;;;4.54;100.00;99537.09;5002658;28;19996;-86
2023/12/24 00:14:00;;;;;;;;;;;;;;;4.53;100.00;99542.38;5006657;28;19950;-86
2023/12/24 00:16:25;;;;;;;;;;;;;;;4.50;100.00;99529.31;5001051;28;19922;-85
2023/12/24 00:18:54;;;;;;;;;;;;;;;4.78;100.00;99513.81;5002234;28;20373;-88
2023/12/24 00:23:52;;;;;;;;;;;;;;;5.03;100.00;99518.50;5009614;28;19934;-86
2023/12/24 00:26:31;;;;;;;;;;;;;;;;;;;;;
2023/12/24 00:28:56;;;;;;;;;;;;;;;4.71;100.00;99525.38;5012517;28;20028;-87
2023/12/24 00:31:22;;;;;;;;;;;;;;;4.66;100.00;99529.84;5011966;28;20012;-85
2023/12/24 00:33:57;;;;;;;;;;;;;;;;;;;;;
2023/12/24 00:36:23;;;;;;;;;;;;;;;4.71;100.00;99523.59;5012449;28;19917;-83
2023/12/24 00:38:54;;;;;;;;;;;;;;;4.61;100.00;99523.84;5012876;28;20023;-86
2023/12/24 00:41:25;;;;;;;;;;;;;;;4.55;100.00;99523.09;4996267;28;19921;-86
2023/12/24 00:43:51;;;;;;;;;;;;;;;4.64;100.00;99521.16;5012252;28;19979;-81
2023/12/24 00:46:21;;;;;;;;;;;;;;;4.64;100.00;99513.28;5011879;28;19953;-85
2023/12/24 00:48:56;;;;;;;;;;;;;;;4.43;100.00;99528.59;5012350;28;20020;-86
2023/12/24 00:51:22;;;;;;;;;;;;;;;4.49;100.00;99517.97;4993901;28;19921;-84
2023/12/24 00:53:49;;;;;;;;;;;;;;;4.68;100.00;99522.81;5012518;28;19921;-84
2023/12/24 00:56:14;;;;;;;;;;;;;;;4.74;100.00;99517.44;5012794;28;19918;-82
2023/12/24 00:58:40;;;;;;;;;;;;;;;4.63;100.00;99515.06;5010201;28;19921;-87
2023/12/24 01:01:14;;;;;;;;;;;;;;;4.55;100.00;99517.00;5011832;28;20036;-88
2023/12/24 01:03:39;;;;;;;;;;;;;;;4.48;100.00;99513.66;5002716;28;19922;-88
2023/12/24 01:06:05;;;;;;;;;;;;;;;4.37;100.00;99510.38;5021062;23;20748;-89
2023/12/24 01:08:30;;;;;;;;;;;;;;;4.26;100.00;99515.88;5020280;28;19925;-81
2023/12/24 01:10:56;;;;;;;;;;;;;;;4.39;100.00;99503.34;5022159;28;19997;-84
2023/12/24 01:13:24;;;;;;;;;;;;;;;4.49;100.00;99502.25;5021050;28;20044;-91
2023/12/24 01:15:49;;;;;;;;;;;;;;;4.45;100.00;99499.72;5022781;28;19929;-81
2023/12/24 01:18:25;;;;;;;;;;;;;;;4.37;100.00;99502.50;5022334;28;20323;-85
2023/12/24 01:20:53;;;;;;;;;;;;;;;4.42;100.00;99505.91;5020372;28;19933;-86
2023/12/24 01:23:24;;;;;;;;;;;;;;;4.54;100.00;99515.25;5018820;28;19924;-90
2023/12/24 01:25:58;;;;;;;;;;;;;;;4.50;100.00;99517.09;5021995;28;20428;-90
2023/12/24 01:28:31;;;;;;;;;;;;;;;4.47;100.00;99517.16;5020064;28;19925;-90
2023/12/24 01:30:56;;;;;;;;;;;;;;;4.48;100.00;99516.28;5020931;28;19924;-84
2023/12/24 01:33:21;;;;;;;;;;;;;;;4.37;100.00;99518.25;5020311;28;19917;-87
2023/12/24 01:36:10;;;;;;;;;;;;;;;4.40;100.00;99507.69;5021816;28;19917;-86
2023/12/24 01:38:35;;;;;;;;;;;;;;;4.31;100.00;99500.88;5021405;28;20013;-88
2023/12/24 01:41:03;;;;;;;;;;;;;;;4.36;100.00;99500.78;5020670;28;19924;-87
2023/12/24 01:43:36;;;;;;;;;;;;;;;4.23;100.00;99496.69;5019454;28;20054;-85
2023/12/24 01:46:19;;;;;;;;;;;;;;;4.29;100.00;99494.81;5021406;28;19917;-91
2023/12/24 01:48:49;;;;;;;;;;;;;;;4.66;100.00;99486.13;5015335;28;19932;-89
2023/12/24 01:51:24;;;;;;;;;;;;;;;4.38;100.00;99482.41;5020574;28;19913;-89
2023/12/24 01:53:52;;;;;;;;;;;;;;;4.29;100.00;99494.81;5022491;28;19960;-90
2023/12/24 01:56:19;;;;;;;;;;;;;;;8.26;100.00;99498.88;5020284;28;19922;-83
2023/12/24 01:58:57;;;;;;;;;;;;;;;;;;;;;
2023/12/24 02:01:26;;;;;;;;;;;;;;;4.75;100.00;99498.16;5026908;28;19935;-84
2023/12/24 02:03:51;;;;;;;;;;;;;;;4.57;100.00;99514.34;5026599;28;19926;-89
2023/12/24 02:06:20;;;;;;;;;;;;;;;4.54;100.00;99505.63;5028299;28;19967;-89
2023/12/24 02:08:46;;;;;;;;;;;;;;;4.52;100.00;99501.31;5028212;28;19917;-92
2023/12/24 02:11:25;;;;;;;;;;;;;;;4.35;100.00;99496.44;5028962;28;20365;-91
2023/12/24 02:13:50;;;;;;;;;;;;;;;4.38;100.00;99498.13;5026108;28;19968;-84
2023/12/24 02:16:18;;;;;;;;;;;;;;;4.39;100.00;99498.09;5026150;28;19921;-83
2023/12/24 02:18:43;;;;;;;;;;;;;;;4.62;100.00;99508.06;5028339;28;19925;-86
2023/12/24 02:21:08;;;;;;;;;;;;;;;4.51;100.00;99507.44;5027899;28;20440;-85
2023/12/24 02:23:34;;;;;;;;;;;;;;;4.48;100.00;99503.16;5027655;28;19924;-85
2023/12/24 02:26:25;;;;;;;;;;;;;;;4.30;100.00;99519.28;5028090;28;19928;-91
2023/12/24 02:28:53;;;;;;;;;;;;;;;4.26;100.00;99535.97;5026996;28;20016;-84
2023/12/24 02:31:24;;;;;;;;;;;;;;;4.22;100.00;99537.81;5025282;28;19930;-86
2023/12/24 02:33:51;;;;;;;;;;;;;;;4.27;100.00;99545.59;5026548;28;20019;-86
2023/12/24 02:36:23;;;;;;;;;;;;;;;4.10;100.00;99541.56;5025910;28;20277;-85
2023/12/24 02:38:51;;;;;;;;;;;;;;;4.12;100.00;99531.88;5027401;28;19931;-88
2023/12/24 02:41:16;;;;;;;;;;;;;;;4.21;100.00;99541.31;5042173;28;19921;-82
2023/12/24 05:31:38;;;;;;;;;;;;;;;4.99;100.00;99312.03;5161118;23;20024;-92
2023/12/24 05:34:06;;;;;;;;;;;;;;;4.82;100.00;99297.59;4999827;28;19928;-86
2023/12/24 05:36:34;;;;;;;;;;;;;;;5.05;100.00;99290.84;5002458;28;20283;-85
2023/12/24 05:38:59;;;;;;;;;;;;;;;5.00;100.00;99290.13;5001596;28;19944;-85
2023/12/24 05:41:24;;;;;;;;;;;;;;;5.08;100.00;99296.00;5002472;28;20373;-86
2023/12/24 05:43:50;;;;;;;;;;;;;;;4.95;100.00;99307.78;5002412;28;20004;-86
2023/12/24 05:46:15;;;;;;;;;;;;;;;5.15;100.00;99305.44;5001847;28;19917;-85
2023/12/24 05:48:43;;;;;;;;;;;;;;;5.35;100.00;99294.34;5002587;28;19918;-88
2023/12/24 05:51:09;;;;;;;;;;;;;;;5.51;100.00;99271.13;5002351;28;19922;-86
2023/12/24 05:53:34;;;;;;;;;;;;;;;5.36;100.00;99275.06;5002849;28;20432;-85
2023/12/24 05:55:59;;;;;;;;;;;;;;;5.59;100.00;99269.09;5001244;28;20272;-86
2023/12/24 05:58:25;;;;;;;;;;;;;;;5.98;100.00;99267.94;5002769;28;19972;-85
2023/12/24 06:00:51;;;;;;;;;;;;;;;5.68;100.00;99273.25;5001369;28;19918;-85
2023/12/24 06:03:16;;;;;;;;;;;;;;;5.53;100.00;99276.31;5001458;28;19925;-85
2023/12/24 06:05:41;;;;;;;;;;;;;;;5.73;100.00;99271.31;5002133;28;20383;-85
2023/12/24 06:08:06;;;;;;;;;;;;;;;5.69;100.00;99272.31;5001505;28;19914;-84
2023/12/24 06:10:33;;;;;;;;;;;;;;;5.79;100.00;99257.09;5002399;28;20424;-84
2023/12/24 06:12:58;;;;;;;;;;;;;;;5.86;100.00;99263.06;5001935;28;19944;-85
2023/12/24 06:15:23;;;;;;;;;;;;;;;6.13;100.00;99266.59;5000660;28;19918;-85
2023/12/24 06:17:48;;;;;;;;;;;;;;;6.15;100.00;99243.72;5002953;28;19996;-85
2023/12/24 06:20:14;;;;;;;;;;;;;;;6.02;100.00;99253.78;5002196;28;19921;-88
2023/12/24 06:22:39;;;;;;;;;;;;;;;6.16;100.00;99267.34;5001970;28;19926;-88
2023/12/24 06:25:04;;;;;;;;;;;;;;;6.03;100.00;99265.16;5000928;28;20027;-87
2023/12/24 06:27:30;;;;;;;;;;;;;;;6.17;100.00;99255.91;5002550;28;19964;-88
2023/12/24 06:29:55;;;;;;;;;;;;;;;6.18;100.00;99259.41;5002051;28;19918;-85
2023/12/24 06:32:20;;;;;;;;;;;;;;;6.16;100.00;99254.19;5000504;28;19926;-88
2023/12/24 06:34:46;;;;;;;;;;;;;;;6.12;100.00;99251.69;5001852;28;19917;-89
2023/12/24 06:37:11;;;;;;;;;;;;;;;6.10;100.00;99235.13;5002397;28;19922;-88
2023/12/24 06:39:36;;;;;;;;;;;;;;;6.34;100.00;99244.81;5002428;28;20024;-88
2023/12/24 06:42:02;;;;;;;;;;;;;;;6.22;100.00;99250.47;5002349;28;20365;-85
2023/12/24 06:44:27;;;;;;;;;;;;;;;5.89;100.00;99247.16;5003433;28;20361;-90
2023/12/24 06:46:53;;;;;;;;;;;;;;;6.22;100.00;99260.16;5004857;28;19965;-88
2023/12/24 06:49:19;;;;;;;;;;;;;;;6.19;100.00;99258.50;5004170;28;19918;-90
2023/12/24 06:51:44;;;;;;;;;;;;;;;6.18;100.00;99248.88;5002601;28;19928;-94
2023/12/24 06:54:09;;;;;;;;;;;;;;;6.38;100.00;99247.34;5007536;28;19985;-89
2023/12/24 06:56:35;;;;;;;;;;;;;;;6.62;100.00;99243.88;5009495;28;20332;-89
2023/12/24 06:59:02;;;;;;;;;;;;;;;6.51;100.00;99251.25;5003547;28;19918;-89
2023/12/24 07:01:27;;;;;;;;;;;;;;;6.45;100.00;99251.50;5003141;28;19917;-90
2023/12/24 07:03:53;;;;;;;;;;;;;;;6.29;100.00;99253.78;5005868;28;20296;-90
2023/12/24 07:06:18;;;;;;;;;;;;;;;6.62;100.00;99251.75;5005249;28;19918;-92
2023/12/24 07:08:43;;;;;;;;;;;;;;;6.40;100.00;99264.81;5004506;28;20004;-91
2023/12/24 07:11:08;;;;;;;;;;;;;;;6.50;100.00;99255.66;5005021;28;19933;-87
2023/12/24 07:13:33;;;;;;;;;;;;;;;6.34;100.00;99268.47;5005291;28;20327;-86
2023/12/24 07:15:59;;;;;;;;;;;;;;;6.60;100.00;99261.47;5002797;28;20333;-88
2023/12/24 07:18:25;;;;;;;;;;;;;;;6.43;100.00;99263.81;5005467;28;19975;-87
2023/12/24 07:20:50;;;;;;;;;;;;;;;6.35;100.00;99262.31;5004900;28;19918;-86
2023/12/24 07:23:15;;;;;;;;;;;;;;;6.71;100.00;99267.22;5003359;28;19928;-87
2023/12/24 07:25:40;;;;;;;;;;;;;;;6.58;100.00;99273.81;5003402;28;19921;-85
2023/12/24 07:28:06;;;;;;;;;;;;;;;6.58;100.00;99273.81;5003987;28;19930;-85
2023/12/24 07:30:31;;;;;;;;;;;;;;;6.17;100.00;99276.97;5001739;28;19918;-87
2023/12/24 07:32:57;;;;;;;;;;;;;;;6.52;100.00;99274.03;5002697;28;19922;-86
2023/12/24 07:35:22;;;;;;;;;;;;;;;6.55;100.00;99282.69;5001730;28;19976;-88
2023/12/24 07:37:48;;;;;;;;;;;;;;;6.55;100.00;99290.56;5003486;28;20412;-83
2023/12/24 07:40:13;;;;;;;;;;;;;;;6.47;100.00;99286.50;5003197;28;19922;-84
2023/12/24 07:42:41;;;;;;;;;;;;;;;6.88;100.00;99289.47;5006682;28;19965;-91
2023/12/24 07:45:06;;;;;;;;;;;;;;;6.85;100.00;99286.94;5002909;28;19929;-89
2023/12/24 07:47:31;;;;;;;;;;;;;;;6.57;100.00;99295.78;5005920;28;19918;-89
2023/12/24 07:49:57;;;;;;;;;;;;;;;10.69;100.00;99295.09;5001239;28;19936;-79
2023/12/24 07:52:22;;;;;;;;;;;;;;;9.16;100.00;99279.47;5002305;28;19922;-93
2023/12/24 07:54:47;;;;;;;;;;;;;;;7.37;100.00;99286.78;5002156;28;20304;-85
2023/12/24 07:57:13;;;;;;;;;;;;;;;7.20;100.00;99285.66;5004278;28;19921;-91
2023/12/24 07:59:38;;;;;;;;;;;;;;;6.87;100.00;99280.69;5001463;28;19921;-87
2023/12/24 08:02:03;;;;;;;;;;;;;;;6.96;100.00;99290.06;5003274;28;19917;-88
2023/12/24 08:04:30;;;;;;;;;;;;;;;6.73;100.00;99291.72;5005165;28;19922;-88
2023/12/24 08:06:55;;;;;;;;;;;;;;;6.83;100.00;99299.28;5000412;28;19929;-87
2023/12/24 08:09:20;;;;;;;;;;;;;;;6.80;100.00;99300.28;4998854;28;20269;-89
2023/12/24 08:11:45;;;;;;;;;;;;;;;6.85;100.00;99298.31;5002713;28;19918;-87
2023/12/24 08:14:10;;;;;;;;;;;;;;;7.02;100.00;99295.09;5003989;28;19965;-88
2023/12/24 08:16:36;;;;;;;;;;;;;;;6.83;100.00;99305.44;5001996;28;19922;-89
2023/12/24 08:19:05;;;;;;;;;;;;;;;6.55;100.00;99308.16;5002697;28;19921;-90
2023/12/24 08:21:31;;;;;;;;;;;;;;;6.94;100.00;99305.06;5005961;28;19957;-87
2023/12/24 08:23:59;;;;;;;;;;;;;;;6.62;100.00;99321.97;5003854;28;21159;-90
2023/12/24 08:26:26;;;;;;;;;;;;;;;6.48;100.00;99319.81;5002758;28;20288;-81
2023/12/24 08:28:54;;;;;;;;;;;;;;;7.12;100.00;99315.84;5005493;28;19917;-88
2023/12/24 08:31:19;;;;;;;;;;;;;;;7.75;100.00;99311.69;5002660;28;19932;-92
2023/12/24 08:33:48;;;;;;;;;;;;;;;8.94;100.00;99316.59;5011623;28;19917;-90
2023/12/24 08:36:13;;;;;;;;;;;;;;;7.62;100.00;99298.13;5003615;28;19941;-84
2023/12/24 08:38:49;;;;;;;;;;;;;;;7.02;100.00;99307.41;5003510;28;20298;-89
2023/12/24 08:41:17;;;;;;;;;;;;;;;6.98;100.00;99304.03;5007823;28;19925;-89
2023/12/24 08:43:42;;;;;;;;;;;;;;;6.80;100.00;99309.97;5004297;28;19918;-87
2023/12/24 08:46:07;;;;;;;;;;;;;;;6.93;100.00;99316.50;5000141;28;20296;-84
2023/12/24 08:48:32;;;;;;;;;;;;;;;7.09;100.00;99304.50;5001030;28;19928;-86
2023/12/24 08:51:05;;;;;;;;;;;;;;;7.34;100.00;99303.59;5002968;28;19926;-90
2023/12/24 08:53:30;;;;;;;;;;;;;;;7.25;100.00;99310.06;5002357;28;20292;-85
2023/12/24 08:56:03;;;;;;;;;;;;;;;7.14;100.00;99314.00;5002967;28;19918;-88
2023/12/24 08:58:31;;;;;;;;;;;;;;;6.92;100.00;99314.78;5002576;28;19917;-88
2023/12/24 09:00:59;;;;;;;;;;;;;;;6.91;100.00;99315.72;5001289;28;19922;-88
2023/12/24 09:03:25;;;;;;;;;;;;;;;11.60;100.00;99292.97;5005122;28;20393;-84
2023/12/24 09:05:53;;;;;;;;;;;;;;;9.42;100.00;99299.44;5002867;28;19960;-87
2023/12/24 09:08:18;;;;;;;;;;;;;;;7.66;100.00;99312.06;5003748;28;20373;-88
2023/12/24 09:10:43;;;;;;;;;;;;;;;7.57;100.00;99312.41;5001994;28;20005;-89
2023/12/24 09:13:08;;;;;;;;;;;;;;;7.41;100.00;99312.97;5002160;28;20301;-90
2023/12/24 09:15:39;;;;;;;;;;;;;;;7.28;100.00;99319.63;5002670;28;19981;-94
2023/12/24 09:18:04;;;;;;;;;;;;;;;7.23;100.00;99316.31;5000879;28;19927;-86
2023/12/24 09:20:34;;;;;;;;;;;;;;;7.24;100.00;99315.38;5001574;28;20342;-90
2023/12/24 09:23:00;;;;;;;;;;;;;;;7.39;100.00;99325.38;5000291;28;19968;-85
2023/12/24 09:25:25;;;;;;;;;;;;;;;7.53;100.00;99337.16;5000508;28;19926;-87
2023/12/24 09:27:58;;;;;;;;;;;;;;;7.40;100.00;99331.50;4999914;28;19949;-87
2023/12/24 09:30:24;;;;;;;;;;;;;;;7.52;100.00;99338.09;4995502;28;19926;-87
2023/12/24 09:32:50;;;;;;;;;;;;;;;7.25;100.00;99338.19;4999786;28;19972;-83
2023/12/24 09:35:17;;;;;;;;;;;;;;;7.36;100.00;99335.19;5002201;28;20011;-85
2023/12/24 09:37:43;;;;;;;;;;;;;;;7.69;100.00;99325.16;5000897;28;20288;-86
2023/12/24 09:40:11;;;;;;;;;;;;;;;7.64;100.00;99324.44;5000524;28;19922;-85
2023/12/24 09:42:37;;;;;;;;;;;;;;;7.71;100.00;99325.09;5000456;28;19918;-91
2023/12/24 09:45:02;;;;;;;;;;;;;;;7.57;100.00;99333.50;5000666;28;20071;-89
2023/12/24 09:47:28;;;;;;;;;;;;;;;7.60;100.00;99333.41;4999256;28;20453;-84
2023/12/24 09:49:54;;;;;;;;;;;;;;;7.78;100.00;99347.66;5000361;28;19982;-90
2023/12/24 09:52:28;;;;;;;;;;;;;;;7.45;100.00;99348.88;5000821;28;20376;-88
2023/12/24 09:54:54;;;;;;;;;;;;;;;7.61;100.00;99345.66;4999932;28;20019;-84
2023/12/24 09:57:23;;;;;;;;;;;;;;;7.46;100.00;99350.56;5001081;28;20056;-91
2023/12/24 09:59:51;;;;;;;;;;;;;;;7.51;100.00;99357.47;4998967;28;20115;-84
2023/12/24 10:02:29;;;;;;;;;;;;;;;7.61;100.00;99345.66;4998358;28;19926;-88
2023/12/24 10:05:00;;;;;;;;;;;;;;;7.86;100.00;99340.28;5014290;28;19990;-84
2023/12/24 10:07:39;;;;;;;;;;;;;;;7.72;100.00;99354.03;4996135;28;19929;-83
2023/12/24 10:10:10;;;;;;;;;;;;;;;7.71;100.00;99347.03;4998405;28;20404;-87
2023/12/24 10:12:38;;;;;;;;;;;;;;;7.66;100.00;99348.09;4999395;28;19980;-88
2023/12/24 10:15:14;;;;;;;;;;;;;;;7.87;100.00;99347.31;4997289;28;20080;-90
2023/12/24 10:17:48;;;;;;;;;;;;;;;7.91;100.00;99343.59;5008134;28;20380;-89
2023/12/24 10:20:13;;;;;;;;;;;;;;;7.93;100.00;99354.09;5012327;28;19921;-86
2023/12/24 10:22:39;;;;;;;;;;;;;;;7.76;100.00;99352.97;5001384;28;20302;-87
2023/12/24 10:25:06;;;;;;;;;;;;;;;7.89;100.00;99349.88;5003292;28;19929;-82
2023/12/24 10:27:31;;;;;;;;;;;;;;;7.66;100.00;99349.00;5003459;28;19922;-88
2023/12/24 10:30:12;;;;;;;;;;;;;;;7.76;100.00;99345.06;5001437;28;19935;-86
2023/12/24 10:32:38;;;;;;;;;;;;;;;7.75;100.00;99342.50;4999532;28;19933;-85
2023/12/24 10:35:04;;;;;;;;;;;;;;;7.45;100.00;99342.72;5002832;28;19925;-87
2023/12/24 10:37:29;;;;;;;;;;;;;;;7.36;100.00;99341.28;5003261;28;19949;-88
2023/12/24 10:40:08;;;;;;;;;;;;;;;7.39;100.00;99333.28;5001193;28;20117;-85
2023/12/24 10:42:34;;;;;;;;;;;;;;;7.64;100.00;99324.44;5004028;28;19929;-89
2023/12/24 10:45:00;;;;;;;;;;;;;;;7.72;100.00;99322.38;5002155;28;19928;-85
2023/12/24 10:47:25;;;;;;;;;;;;;;;7.90;100.00;99317.31;5005259;28;19917;-90
2023/12/24 10:50:09;;;;;;;;;;;;;;;7.73;100.00;99324.09;5003541;28;19972;-92
2023/12/24 10:52:41;;;;;;;;;;;;;;;7.61;100.00;99316.63;5003364;28;19945;-86
2023/12/24 10:55:13;;;;;;;;;;;;;;;7.88;100.00;99319.13;5001609;28;19922;-90
2023/12/24 10:57:53;;;;;;;;;;;;;;;7.59;100.00;99343.06;5003003;28;19927;-86
2023/12/24 11:00:20;;;;;;;;;;;;;;;7.68;100.00;99328.69;5003553;28;19951;-86
2023/12/24 11:02:53;;;;;;;;;;;;;;;8.00;100.00;99329.22;5020080;28;19940;-85
2023/12/24 11:05:55;;;;;;;;;;;;;;;7.89;100.00;99328.78;5004660;28;19945;-87
2023/12/24 11:08:21;;;;;;;;;;;;;;;8.01;100.00;99328.31;5003810;28;19929;-82
2023/12/24 11:11:06;;;;;;;;;;;;;;;7.98;100.00;99310.81;5003063;28;20398;-89
2023/12/24 11:13:31;;;;;;;;;;;;;;;7.89;100.00;99300.63;5003738;28;19922;-83
2023/12/24 11:15:58;;;;;;;;;;;;;;;8.36;100.00;99297.00;5019326;28;19918;-86
2023/12/24 11:18:43;;;;;;;;;;;;;;;8.02;100.00;99308.03;5004304;28;20048;-86
2023/12/24 11:21:11;;;;;;;;;;;;;;;8.16;100.00;99314.47;5005245;28;20096;-81
2023/12/24 11:23:40;;;;;;;;;;;;;;;7.72;100.00;99301.28;5003510;28;19925;-89
2023/12/24 11:26:33;;;;;;;;;;;;;;;7.66;100.00;99306.81;5004333;28;19967;-86
2023/12/24 11:29:02;;;;;;;;;;;;;;;7.81;100.00;99311.47;5004804;28;19928;-87
2023/12/24 11:31:30;;;;;;;;;;;;;;;8.13;100.00;99306.69;4997413;28;19921;-86
2023/12/24 11:33:57;;;;;;;;;;;;;;;7.70;100.00;99286.44;5001391;28;20021;-89
2023/12/24 11:36:28;;;;;;;;;;;;;;;8.06;100.00;99294.66;5004187;28;20532;-85
2023/12/24 11:38:57;;;;;;;;;;;;;;;7.75;100.00;99297.66;5002114;28;19976;-86
2023/12/24 11:41:35;;;;;;;;;;;;;;;7.67;100.00;99297.09;5001054;28;20008;-86
2023/12/24 11:44:01;;;;;;;;;;;;;;;7.63;100.00;99289.31;5001404;28;19922;-87
2023/12/24 11:46:27;;;;;;;;;;;;;;;7.41;100.00;99286.63;4999200;28;20060;-86
2023/12/24 11:49:00;;;;;;;;;;;;;;;7.93;100.00;99293.44;5000832;28;20000;-88
2023/12/24 11:51:26;;;;;;;;;;;;;;;7.96;100.00;99295.94;5001127;28;19917;-87
2023/12/24 11:54:05;;;;;;;;;;;;;;;7.96;100.00;99295.94;5001748;28;19928;-90
2023/12/24 11:56:30;;;;;;;;;;;;;;;7.68;100.00;99297.03;4999624;28;19925;-85
2023/12/24 11:59:00;;;;;;;;;;;;;;;7.53;100.00;99290.59;4998601;28;20007;-80
2023/12/24 12:01:26;;;;;;;;;;;;;;;7.68;100.00;99283.00;5000454;28;19976;-84
2023/12/24 12:04:03;;;;;;;;;;;;;;;8.95;100.00;99283.94;5002635;28;19929;-87
2023/12/24 12:06:29;;;;;;;;;;;;;;;8.47;100.00;99291.25;5007844;28;19918;-80
2023/12/24 12:09:00;;;;;;;;;;;;;;;8.07;100.00;99284.97;5000425;28;19965;-88
2023/12/24 12:11:25;;;;;;;;;;;;;;;8.07;100.00;99280.53;5002167;28;19932;-86
2023/12/24 12:13:51;;;;;;;;;;;;;;;7.95;100.00;99267.88;5003423;28;19917;-89
2023/12/24 12:16:16;;;;;;;;;;;;;;;8.17;100.00;99268.69;5000268;28;19944;-85
2023/12/24 12:18:41;;;;;;;;;;;;;;;8.30;100.00;99265.56;5003483;28;20341;-87
2023/12/24 12:21:10;;;;;;;;;;;;;;;8.12;100.00;99261.88;5001937;28;19922;-91
2023/12/24 12:23:35;;;;;;;;;;;;;;;7.96;100.00;99262.53;5002660;28;19928;-82
2023/12/24 12:26:11;;;;;;;;;;;;;;;8.04;100.00;99264.84;5005346;28;19913;-89
2023/12/24 12:28:39;;;;;;;;;;;;;;;8.22;100.00;99260.59;5001747;28;19921;-88
2023/12/24 12:31:05;;;;;;;;;;;;;;;8.22;100.00;99250.03;5000781;28;20012;-86
2023/12/24 12:33:33;;;;;;;;;;;;;;;8.12;100.00;99261.88;5003086;28;19921;-90
2023/12/24 12:36:08;;;;;;;;;;;;;;;;;;;;;
2023/12/24 12:39:07;;;;;;;;;;;;;;;7.96;100.00;99245.81;5001250;28;19928;-90
2023/12/24 12:41:35;;;;;;;;;;;;;;;7.63;100.00;99251.53;5008875;28;19922;-85
2023/12/24 12:44:01;;;;;;;;;;;;;;;10.40;100.00;99234.81;5001589;28;19933;-86
2023/12/24 12:46:35;;;;;;;;;;;;;;;9.18;100.00;99246.75;5002594;28;19922;-90
2023/12/24 12:49:06;;;;;;;;;;;;;;;8.54;100.00;99245.22;4999898;28;19940;-91
2023/12/24 12:51:34;;;;;;;;;;;;;;;8.17;100.00;99244.94;4999506;28;20016;-90
2023/12/24 12:54:14;;;;;;;;;;;;;;;8.30;100.00;99224.19;4999538;28;20445;-83
2023/12/24 12:56:47;;;;;;;;;;;;;;;8.01;100.00;99235.97;4999638;28;19930;-83
2023/12/24 12:59:19;;;;;;;;;;;;;;;8.05;100.00;99231.41;5002564;28;19969;-82
2023/12/24 13:01:44;;;;;;;;;;;;;;;8.23;100.00;99233.25;5002093;28;19937;-84
2023/12/24 13:04:09;;;;;;;;;;;;;;;8.25;100.00;99230.56;5000422;28;20352;-85
2023/12/24 13:06:35;;;;;;;;;;;;;;;8.08;100.00;99232.13;5000264;28;19980;-87
2023/12/24 13:09:02;;;;;;;;;;;;;;;8.00;100.00;99223.69;4997464;28;19952;-89
2023/12/24 13:11:28;;;;;;;;;;;;;;;8.11;100.00;99239.91;5000071;28;19922;-84
2023/12/24 13:14:05;;;;;;;;;;;;;;;8.06;100.00;99235.75;5001620;28;20321;-90
2023/12/24 13:16:30;;;;;;;;;;;;;;;8.16;100.00;99237.94;5000671;28;20950;-88
2023/12/24 13:18:56;;;;;;;;;;;;;;;8.25;100.00;99234.06;5001268;28;20013;-87
2023/12/24 13:21:24;;;;;;;;;;;;;;;8.15;100.00;99222.16;5001826;28;19921;-88
2023/12/24 13:23:50;;;;;;;;;;;;;;;8.23;100.00;99217.44;5007916;28;20349;-88
2023/12/24 13:26:16;;;;;;;;;;;;;;;8.04;100.00;99229.69;4999709;28;20025;-93
2023/12/24 13:28:44;;;;;;;;;;;;;;;8.17;100.00;99239.66;5000958;28;20008;-90
2023/12/24 13:31:12;;;;;;;;;;;;;;;8.09;100.00;99231.22;5000390;28;19925;-91
2023/12/24 13:33:37;;;;;;;;;;;;;;;8.04;100.00;99225.28;5001869;28;19921;-89
2023/12/24 13:36:02;;;;;;;;;;;;;;;8.05;100.00;99240.16;5003019;28;19921;-88
2023/12/24 13:38:30;;;;;;;;;;;;;;;8.09;100.00;99231.22;5004267;28;19921;-93
2023/12/24 13:41:01;;;;;;;;;;;;;;;8.15;100.00;99236.25;5001206;28;19922;-91
2023/12/24 13:43:29;;;;;;;;;;;;;;;8.13;100.00;99230.16;5009330;28;19982;-91
2023/12/24 13:45:54;;;;;;;;;;;;;;;8.22;100.00;99233.31;5000307;28;20448;-88
2023/12/24 13:48:22;;;;;;;;;;;;;;;8.09;100.00;99219.78;5003426;28;20117;-91
2023/12/24 13:50:48;;;;;;;;;;;;;;;7.96;100.00;99220.31;5000478;28;20349;-87
2023/12/24 13:53:13;;;;;;;;;;;;;;;7.90;100.00;99219.72;5000498;28;19952;-88
2023/12/24 13:55:41;;;;;;;;;;;;;;;8.28;100.00;99219.88;5002887;28;19949;-89
2023/12/24 13:58:08;;;;;;;;;;;;;;;8.14;100.00;99216.03;4998437;28;19918;-84
2023/12/24 14:00:33;;;;;;;;;;;;;;;8.24;100.00;99229.72;5000985;28;20308;-86
2023/12/24 14:02:58;;;;;;;;;;;;;;;8.20;100.00;99228.13;4995788;28;19922;-86
2023/12/24 14:05:24;;;;;;;;;;;;;;;8.20;100.00;99217.59;4998495;28;20008;-87
2023/12/24 14:07:50;;;;;;;;;;;;;;;7.88;100.00;99229.44;4997932;28;19980;-89
2023/12/24 14:10:15;;;;;;;;;;;;;;;8.00;100.00;99232.44;4996754;28;19921;-88
2023/12/24 14:12:44;;;;;;;;;;;;;;;8.18;100.00;99232.59;4998893;28;20304;-89
2023/12/24 14:15:10;;;;;;;;;;;;;;;7.98;100.00;99233.44;4999951;28;19933;-87
2023/12/24 14:17:38;;;;;;;;;;;;;;;7.95;100.00;99231.78;5003967;28;19928;-85
2023/12/24 14:20:06;;;;;;;;;;;;;;;8.02;100.00;99240.28;5003497;28;19917;-83
2023/12/24 14:22:31;;;;;;;;;;;;;;;8.06;100.00;99236.63;4999312;28;19937;-89
2023/12/24 14:24:57;;;;;;;;;;;;;;;7.91;100.00;99231.97;5000820;28;19925;-93
2023/12/24 14:27:24;;;;;;;;;;;;;;;7.74;100.00;99246.69;5003107;28;19976;-88
2023/12/24 14:29:49;;;;;;;;;;;;;;;7.68;100.00;99254.00;5000178;28;19928;-84
2023/12/24 14:32:15;;;;;;;;;;;;;;;7.58;100.00;99250.88;4998223;28;19926;-84
2023/12/24 14:34:43;;;;;;;;;;;;;;;7.38;100.00;99251.63;5000279;28;19929;-91
2023/12/24 14:37:13;;;;;;;;;;;;;;;7.56;100.00;99256.19;5000544;28;19918;-88
2023/12/24 14:39:38;;;;;;;;;;;;;;;8.07;100.00;99258.56;5000749;28;19922;-86
2023/12/24 14:42:04;;;;;;;;;;;;;;;8.04;100.00;99253.44;5000374;28;19940;-91
2023/12/24 14:44:29;;;;;;;;;;;;;;;8.13;100.00;99253.91;4999279;28;19921;-88
2023/12/24 14:46:54;;;;;;;;;;;;;;;7.97;100.00;99258.09;5016305;28;19933;-87
2023/12/24 14:49:19;;;;;;;;;;;;;;;8.06;100.00;99257.72;5000987;28;20019;-86
2023/12/24 14:51:50;;;;;;;;;;;;;;;8.29;100.00;99263.84;5000963;28;19937;-91
2023/12/24 14:54:16;;;;;;;;;;;;;;;8.05;100.00;99257.78;4999379;28;19922;-86
2023/12/24 14:56:41;;;;;;;;;;;;;;;7.93;100.00;99260.00;5001474;28;19922;-84
2023/12/24 14:59:12;;;;;;;;;;;;;;;8.12;100.00;99265.41;4999752;28;20057;-89
2023/12/24 15:01:37;;;;;;;;;;;;;;;8.17;100.00;99263.44;4998961;28;19925;-92
2023/12/24 15:04:03;;;;;;;;;;;;;;;7.96;100.00;99264.28;4996384;28;19944;-88
2023/12/24 15:06:28;;;;;;;;;;;;;;;7.91;100.00;99269.75;5002808;28;19922;-83
2023/12/24 15:08:53;;;;;;;;;;;;;;;8.05;100.00;99260.44;5003480;28;19925;-85
2023/12/24 15:11:19;;;;;;;;;;;;;;;7.94;100.00;99269.63;5006726;28;19926;-85
2023/12/24 15:13:45;;;;;;;;;;;;;;;7.97;100.00;99258.94;5005117;28;20365;-85
2023/12/24 15:16:10;;;;;;;;;;;;;;;7.73;100.00;99268.72;5004694;28;19918;-84
2023/12/24 15:18:35;;;;;;;;;;;;;;;7.78;100.00;99266.75;5003801;28;19925;-84
2023/12/24 15:21:01;;;;;;;;;;;;;;;7.94;100.00;99258.22;5005064;28;19921;-84
2023/12/24 15:23:26;;;;;;;;;;;;;;;7.97;100.00;99253.66;5005643;28;19917;-80
2023/12/24 15:25:52;;;;;;;;;;;;;;;7.76;100.00;99254.56;5005142;28;19925;-86
2023/12/24 15:28:19;;;;;;;;;;;;;;;7.97;100.00;99260.75;5002854;28;20384;-84
2023/12/24 15:30:44;;;;;;;;;;;;;;;7.86;100.00;99249.75;5002886;28;19917;-90
2023/12/24 15:33:09;;;;;;;;;;;;;;;7.84;100.00;99257.72;5004548;28;19928;-84
2023/12/24 15:35:34;;;;;;;;;;;;;;;7.66;100.00;99247.91;5004656;28;19924;-82
